createdAt,value
2023-06-18T00:00:47.860Z,99.90
2023-06-18T00:03:24.368Z,99.90
2023-06-18T00:06:02.435Z,99.90
2023-06-18T00:08:44.137Z,99.90
2023-06-18T00:11:21.035Z,99.90
2023-06-18T00:14:05.119Z,99.90
2023-06-18T00:16:53.856Z,99.90
2023-06-18T00:19:30.339Z,99.90
2023-06-18T00:22:07.259Z,99.90
2023-06-18T00:24:39.240Z,99.90
2023-06-18T00:27:15.762Z,99.90
2023-06-18T00:29:52.341Z,99.90
2023-06-18T00:32:36.970Z,99.90
2023-06-18T00:35:12.611Z,99.90
2023-06-18T00:37:48.013Z,99.90
2023-06-18T00:40:27.912Z,99.90
2023-06-18T00:43:09.717Z,99.90
2023-06-18T00:45:54.836Z,99.90
2023-06-18T00:48:26.957Z,99.90
2023-06-18T00:51:04.219Z,99.90
2023-06-18T00:53:48.008Z,99.90
2023-06-18T00:56:34.367Z,99.90
2023-06-18T00:59:14.249Z,99.90
2023-06-18T01:01:52.162Z,99.90
2023-06-18T01:04:38.827Z,99.90
2023-06-18T01:07:21.713Z,99.90
2023-06-18T01:10:01.124Z,99.90
2023-06-18T01:12:35.386Z,99.90
2023-06-18T01:15:31.378Z,99.90
2023-06-18T01:18:19.338Z,99.90
2023-06-18T01:21:00.710Z,99.90
2023-06-18T01:23:47.510Z,99.90
2023-06-18T01:26:24.453Z,99.90
2023-06-18T01:29:06.484Z,99.50
2023-06-18T01:31:51.536Z,99.60
2023-06-18T01:34:34.164Z,99.60
2023-06-18T01:37:23.864Z,99.40
2023-06-18T01:40:12.598Z,98.90
2023-06-18T01:42:57.323Z,98.30
2023-06-18T01:45:41.178Z,97.70
2023-06-18T01:48:19.725Z,97.40
2023-06-18T01:51:04.585Z,97.00
2023-06-18T01:53:52.981Z,96.60
2023-06-18T01:56:35.356Z,96.60
2023-06-18T01:59:17.114Z,95.90
2023-06-18T02:02:03.767Z,95.60
2023-06-18T02:04:45.248Z,95.30
2023-06-18T02:07:25.965Z,94.70
2023-06-18T02:10:11.049Z,94.50
2023-06-18T02:12:50.626Z,94.10
2023-06-18T02:15:39.592Z,93.80
2023-06-18T02:18:22.461Z,93.30
2023-06-18T02:20:58.850Z,93.10
2023-06-18T02:23:39.197Z,92.80
2023-06-18T02:26:18.009Z,92.90
2023-06-18T02:28:56.302Z,92.90
2023-06-18T02:31:39.158Z,92.50
2023-06-18T02:34:12.238Z,92.60
2023-06-18T02:37:01.202Z,92.50
2023-06-18T02:39:44.421Z,92.30
2023-06-18T02:42:25.464Z,92.50
2023-06-18T02:45:01.301Z,92.40
2023-06-18T02:47:33.323Z,92.30
2023-06-18T02:50:15.033Z,92.30
2023-06-18T02:53:07.601Z,92.10
2023-06-18T02:55:50.841Z,91.90
2023-06-18T02:58:31.898Z,91.90
2023-06-18T03:01:17.280Z,92.10
2023-06-18T03:04:02.348Z,92.00
2023-06-18T03:06:37.078Z,91.80
2023-06-18T03:09:20.347Z,91.80
2023-06-18T03:11:52.012Z,91.90
2023-06-18T03:14:41.946Z,91.90
2023-06-18T03:17:21.189Z,92.00
2023-06-18T03:20:01.694Z,92.00
2023-06-18T03:22:42.880Z,91.90
2023-06-18T03:25:32.609Z,91.70
2023-06-18T03:28:13.469Z,91.70
2023-06-18T03:30:53.946Z,91.70
2023-06-18T03:33:25.929Z,91.50
2023-06-18T03:36:01.976Z,91.20
2023-06-18T03:38:52.543Z,91.10
2023-06-18T03:41:41.757Z,90.90
2023-06-18T03:44:22.995Z,90.90
2023-06-18T03:47:03.878Z,90.70
2023-06-18T03:49:41.523Z,90.70
2023-06-18T03:52:20.777Z,90.50
2023-06-18T03:54:59.307Z,90.30
2023-06-18T03:57:39.526Z,90.10
2023-06-18T04:00:23.196Z,90.20
2023-06-18T04:03:11.801Z,90.10
2023-06-18T04:05:50.188Z,90.00
2023-06-18T04:08:28.626Z,89.50
2023-06-18T04:11:07.089Z,89.50
2023-06-18T04:14:00.092Z,89.20
2023-06-18T04:16:44.470Z,88.70
2023-06-18T04:19:18.464Z,87.90
2023-06-18T04:22:02.654Z,87.60
2023-06-18T04:24:43.518Z,87.40
2023-06-18T04:27:27.172Z,89.20
2023-06-18T04:30:06.138Z,89.20
2023-06-18T04:32:49.226Z,89.60
2023-06-18T04:35:32.094Z,89.20
2023-06-18T04:38:14.534Z,89.10
2023-06-18T04:40:53.611Z,89.20
2023-06-18T04:43:26.579Z,89.30
2023-06-18T04:46:03.549Z,89.70
2023-06-18T04:48:56.199Z,89.90
2023-06-18T04:51:37.544Z,89.90
2023-06-18T04:54:17.653Z,90.00
2023-06-18T04:56:48.827Z,90.10
2023-06-18T04:59:35.103Z,90.10
2023-06-18T05:02:19.080Z,90.10
2023-06-18T05:04:56.194Z,90.20
2023-06-18T05:07:41.312Z,90.30
2023-06-18T05:10:28.593Z,90.60
2023-06-18T05:13:09.042Z,91.10
2023-06-18T05:15:47.295Z,91.90
2023-06-18T05:18:42.384Z,92.30
2023-06-18T05:21:24.922Z,93.30
2023-06-18T05:24:12.772Z,93.70
2023-06-18T05:26:53.089Z,94.60
2023-06-18T05:29:34.922Z,95.10
2023-06-18T05:32:16.092Z,95.50
2023-06-18T05:34:59.596Z,96.10
2023-06-18T05:40:37.181Z,98.00
2023-06-18T05:43:14.895Z,98.20
2023-06-18T05:45:56.082Z,98.60
2023-06-18T05:48:34.438Z,99.10
2023-06-18T05:51:34.429Z,99.40
2023-06-18T05:57:11.761Z,99.90
2023-06-18T05:59:50.877Z,99.90
2023-06-18T06:02:29.210Z,99.90
2023-06-18T06:05:06.751Z,99.90
2023-06-18T06:10:50.771Z,99.90
2023-06-18T06:13:24.461Z,99.90
2023-06-18T06:16:29.146Z,99.90
2023-06-18T06:19:11.477Z,99.90
2023-06-18T06:21:46.126Z,99.90
2023-06-18T06:24:35.243Z,99.90
2023-06-18T06:27:11.411Z,99.90
2023-06-18T06:29:50.403Z,99.90
2023-06-18T06:32:39.660Z,99.90
2023-06-18T06:35:18.639Z,99.90
2023-06-18T06:37:59.207Z,99.90
2023-06-18T06:40:32.802Z,99.90
2023-06-18T06:43:08.192Z,99.90
2023-06-18T06:46:12.091Z,99.90
2023-06-18T06:49:03.789Z,99.90
2023-06-18T06:52:11.347Z,99.90
2023-06-18T06:54:42.582Z,99.90
2023-06-18T06:57:14.743Z,99.90
2023-06-18T06:59:49.303Z,99.90
2023-06-18T07:02:36.699Z,99.90
2023-06-18T07:05:19.969Z,99.90
2023-06-18T07:07:53.730Z,99.90
2023-06-18T07:10:35.514Z,99.90
2023-06-18T07:13:07.753Z,99.90
2023-06-18T07:15:38.952Z,99.90
2023-06-18T07:18:19.325Z,99.90
2023-06-18T07:20:58.923Z,99.90
2023-06-18T07:23:39.798Z,99.90
2023-06-18T07:26:21.578Z,99.90
2023-06-18T07:28:56.681Z,99.90
2023-06-18T07:31:27.124Z,99.90
2023-06-18T07:34:06.825Z,99.90
2023-06-18T07:36:54.209Z,99.90
2023-06-18T07:39:24.534Z,99.90
2023-06-18T07:42:03.697Z,99.90
2023-06-18T07:44:48.664Z,99.90
2023-06-18T07:47:20.272Z,99.90
2023-06-18T07:49:59.096Z,99.90
2023-06-18T07:52:31.809Z,99.90
2023-06-18T07:55:12.805Z,99.90
2023-06-18T07:57:52.489Z,99.90
2023-06-18T08:00:32.161Z,99.90
2023-06-18T08:03:14.446Z,99.90
2023-06-18T08:05:55.118Z,99.90
2023-06-18T08:08:33.979Z,99.90
2023-06-18T08:11:06.193Z,99.90
2023-06-18T08:14:04.056Z,99.90
2023-06-18T08:16:53.630Z,99.90
2023-06-18T08:19:34.963Z,99.90
2023-06-18T08:22:18.830Z,99.90
2023-06-18T08:25:01.068Z,99.90
2023-06-18T08:27:41.852Z,99.90
2023-06-18T08:30:21.692Z,99.90
2023-06-18T08:32:59.543Z,99.90
2023-06-18T08:35:34.068Z,99.90
2023-06-18T08:38:14.177Z,99.90
2023-06-18T08:40:58.178Z,99.90
2023-06-18T08:43:39.178Z,99.90
2023-06-18T08:46:14.403Z,99.90
2023-06-18T08:49:08.258Z,99.90
2023-06-18T08:51:53.704Z,99.90
2023-06-18T08:54:38.380Z,99.90
2023-06-18T08:57:23.589Z,99.90
2023-06-18T09:00:01.425Z,99.90
2023-06-18T09:02:32.836Z,99.90
2023-06-18T09:05:25.611Z,99.90
2023-06-18T09:08:01.520Z,99.90
2023-06-18T09:10:40.483Z,99.90
2023-06-18T09:13:10.246Z,99.90
2023-06-18T09:15:47.484Z,99.90
2023-06-18T09:18:27.106Z,99.90
2023-06-18T09:21:44.505Z,99.90
2023-06-18T09:24:26.075Z,99.90
2023-06-18T09:27:18.859Z,99.90
2023-06-18T09:30:02.133Z,99.90
2023-06-18T09:32:52.395Z,99.90
2023-06-18T09:35:32.470Z,99.90
2023-06-18T09:38:19.045Z,99.90
2023-06-18T09:40:56.872Z,99.90
2023-06-18T09:43:39.350Z,99.90
2023-06-18T09:46:17.700Z,99.90
2023-06-18T09:49:00.516Z,99.90
2023-06-18T09:51:44.089Z,99.90
2023-06-18T09:54:24.627Z,99.90
2023-06-18T09:57:04.471Z,99.90
2023-06-18T09:59:39.096Z,99.90
2023-06-18T10:02:28.099Z,99.90
2023-06-18T10:05:00.159Z,99.90
2023-06-18T10:07:37.770Z,99.90
2023-06-18T10:10:19.344Z,99.90
2023-06-18T10:13:08.472Z,99.90
2023-06-18T10:15:44.709Z,99.90
2023-06-18T10:18:25.217Z,99.90
2023-06-18T10:21:06.202Z,99.90
2023-06-18T10:23:52.106Z,99.90
2023-06-18T10:26:34.846Z,99.90
2023-06-18T10:29:10.348Z,99.90
2023-06-18T10:31:52.061Z,99.90
2023-06-18T10:34:23.799Z,99.90
2023-06-18T10:37:04.468Z,99.90
2023-06-18T10:39:43.089Z,99.90
2023-06-18T10:42:21.242Z,99.90
2023-06-18T10:44:55.827Z,99.90
2023-06-18T10:47:32.089Z,99.90
2023-06-18T10:50:23.867Z,99.90
2023-06-18T10:52:57.598Z,99.90
2023-06-18T10:55:41.324Z,99.90
2023-06-18T10:58:46.637Z,99.90
2023-06-18T11:01:32.521Z,99.90
2023-06-18T11:04:10.983Z,99.90
2023-06-18T11:06:49.672Z,99.90
2023-06-18T11:09:29.173Z,99.90
2023-06-18T11:12:02.049Z,99.90
2023-06-18T11:14:37.001Z,99.90
2023-06-18T11:17:17.708Z,99.90
2023-06-18T11:19:53.332Z,99.90
2023-06-18T11:22:28.868Z,99.90
2023-06-18T11:25:12.164Z,99.90
2023-06-18T11:27:47.376Z,99.90
2023-06-18T11:30:36.070Z,99.90
2023-06-18T11:33:17.381Z,99.90
2023-06-18T11:35:57.073Z,99.90
2023-06-18T11:38:38.360Z,99.90
2023-06-18T11:41:20.071Z,99.90
2023-06-18T11:44:04.008Z,99.90
2023-06-18T11:46:57.537Z,99.90
2023-06-18T11:49:34.291Z,99.90
2023-06-18T11:52:12.514Z,99.90
2023-06-18T11:54:48.563Z,99.90
2023-06-18T11:57:25.155Z,99.90
2023-06-18T11:59:57.926Z,99.90
2023-06-18T12:02:34.650Z,99.90
2023-06-18T12:05:27.347Z,99.90
2023-06-18T12:08:11.721Z,99.90
2023-06-18T12:10:49.355Z,99.90
2023-06-18T12:13:37.768Z,99.90
2023-06-18T12:16:18.423Z,99.90
2023-06-18T12:19:06.898Z,99.90
2023-06-18T12:21:40.314Z,99.90
2023-06-18T12:24:23.422Z,99.90
2023-06-18T12:26:56.037Z,99.90
2023-06-18T12:29:34.411Z,99.90
2023-06-18T12:32:12.987Z,99.90
2023-06-18T12:35:00.418Z,99.90
2023-06-18T12:37:43.579Z,99.90
2023-06-18T12:40:28.226Z,99.90
2023-06-18T12:43:09.767Z,99.90
2023-06-18T12:45:41.958Z,99.90
2023-06-18T12:48:21.050Z,99.90
2023-06-18T12:51:06.078Z,99.90
2023-06-18T12:53:37.248Z,99.90
2023-06-18T12:56:35.551Z,99.90
2023-06-18T12:59:15.178Z,99.90
2023-06-18T13:01:58.037Z,99.90
2023-06-18T13:04:30.824Z,99.90
2023-06-18T13:07:15.315Z,99.90
2023-06-18T13:09:56.411Z,99.90
2023-06-18T13:12:28.703Z,99.90
2023-06-18T13:15:10.274Z,99.90
2023-06-18T13:17:45.206Z,99.90
2023-06-18T13:20:20.766Z,99.90
2023-06-18T13:23:04.716Z,99.90
2023-06-18T13:25:47.891Z,99.90
2023-06-18T13:28:24.272Z,99.90
2023-06-18T13:30:59.074Z,99.90
2023-06-18T13:33:30.272Z,99.90
2023-06-18T13:36:11.751Z,99.90
2023-06-18T13:38:56.832Z,99.90
2023-06-18T13:41:33.093Z,99.90
2023-06-18T13:44:18.667Z,99.90
2023-06-18T13:46:51.556Z,99.90
2023-06-18T13:49:41.599Z,99.90
2023-06-18T13:52:23.382Z,99.90
2023-06-18T13:55:02.237Z,99.90
2023-06-18T13:57:49.148Z,99.90
2023-06-18T14:00:27.172Z,99.90
2023-06-18T14:03:07.471Z,99.90
2023-06-18T14:05:51.870Z,99.90
2023-06-18T14:08:37.541Z,99.90
2023-06-18T14:11:16.905Z,99.90
2023-06-18T14:14:00.838Z,99.90
2023-06-18T14:16:43.833Z,99.90
2023-06-18T14:19:23.413Z,99.90
2023-06-18T14:22:10.448Z,99.90
2023-06-18T14:24:56.009Z,99.90
2023-06-18T14:27:43.832Z,99.90
2023-06-18T14:30:22.487Z,99.90
2023-06-18T14:33:10.726Z,99.90
2023-06-18T14:35:49.619Z,99.90
2023-06-18T14:38:31.748Z,99.90
2023-06-18T14:41:03.519Z,99.90
2023-06-18T14:43:43.040Z,99.90
2023-06-18T14:46:18.296Z,99.90
2023-06-18T14:49:01.447Z,99.90
2023-06-18T14:51:42.249Z,99.90
2023-06-18T14:54:27.057Z,99.90
2023-06-18T14:57:00.196Z,99.90
2023-06-18T14:59:40.730Z,99.90
2023-06-18T15:02:29.192Z,99.90
2023-06-18T15:05:05.269Z,99.90
2023-06-18T15:07:46.871Z,99.90
2023-06-18T15:10:27.302Z,99.90
2023-06-18T15:12:58.962Z,99.90
2023-06-18T15:15:32.988Z,99.90
2023-06-18T15:18:17.486Z,99.90
2023-06-18T15:21:04.702Z,99.90
2023-06-18T15:23:43.719Z,99.90
2023-06-18T15:26:23.210Z,99.90
2023-06-18T15:29:04.784Z,99.90
2023-06-18T15:31:57.276Z,99.90
2023-06-18T15:34:41.555Z,99.90
2023-06-18T15:37:20.593Z,99.90
2023-06-18T15:39:59.724Z,99.90
2023-06-18T15:42:34.829Z,99.90
2023-06-18T15:45:15.879Z,99.90
2023-06-18T15:47:56.540Z,99.90
2023-06-18T15:50:31.190Z,99.90
2023-06-18T15:53:13.984Z,99.90
2023-06-18T15:55:45.590Z,99.90
2023-06-18T15:58:25.685Z,99.90
2023-06-18T16:01:01.172Z,99.90
2023-06-18T16:03:50.099Z,99.90
2023-06-18T16:06:28.743Z,99.90
2023-06-18T16:09:09.424Z,99.90
2023-06-18T16:11:40.887Z,99.90
2023-06-18T16:14:09.798Z,99.90
2023-06-18T16:16:39.098Z,99.90
2023-06-18T16:19:09.479Z,99.90
2023-06-18T16:21:38.407Z,99.90
2023-06-18T16:24:07.820Z,99.90
2023-06-18T16:26:38.035Z,99.90
2023-06-18T16:29:06.833Z,99.90
2023-06-18T16:31:35.720Z,99.90
2023-06-18T16:34:04.646Z,99.90
2023-06-18T16:36:40.216Z,99.90
2023-06-18T16:39:12.412Z,99.90
2023-06-18T16:41:41.215Z,99.90
2023-06-18T16:44:10.428Z,99.90
2023-06-18T16:46:39.442Z,99.90
2023-06-18T16:49:08.240Z,99.90
2023-06-18T16:51:38.577Z,99.90
2023-06-18T16:54:07.459Z,99.90
2023-06-18T16:56:36.226Z,99.90
2023-06-18T16:59:05.299Z,99.90
2023-06-18T17:01:34.636Z,99.90
2023-06-18T17:04:04.865Z,99.90
2023-06-18T17:06:34.776Z,99.90
2023-06-18T17:09:07.452Z,99.90
2023-06-18T17:11:36.346Z,99.80
2023-06-18T17:14:05.433Z,99.70
2023-06-18T17:16:34.372Z,99.00
2023-06-18T17:19:03.327Z,98.50
2023-06-18T17:21:32.225Z,98.50
2023-06-18T17:24:03.440Z,98.20
2023-06-18T17:26:35.648Z,97.70
2023-06-18T17:29:04.542Z,98.60
2023-06-18T17:31:33.922Z,99.20
2023-06-18T17:34:02.881Z,99.10
2023-06-18T17:36:31.775Z,99.40
2023-06-18T17:39:00.630Z,98.80
2023-06-18T17:41:29.444Z,98.90
2023-06-18T17:43:59.708Z,99.40
2023-06-18T17:46:28.783Z,99.60
2023-06-18T17:48:58.353Z,99.60
2023-06-18T17:51:28.537Z,99.80
2023-06-18T17:53:57.672Z,99.80
2023-06-18T17:56:26.943Z,99.90
2023-06-18T17:58:56.235Z,99.90
2023-06-18T18:01:26.675Z,99.90
2023-06-18T18:03:55.871Z,99.90
2023-06-18T18:06:25.093Z,99.90
2023-06-18T18:08:56.459Z,99.90
2023-06-18T18:11:28.000Z,99.90
2023-06-18T18:13:57.319Z,99.90
2023-06-18T18:16:27.745Z,99.90
2023-06-18T18:18:57.449Z,99.90
2023-06-18T18:21:26.589Z,99.90
2023-06-18T18:23:55.505Z,99.90
2023-06-18T18:26:35.597Z,99.90
2023-06-18T18:29:14.476Z,99.90
2023-06-18T18:31:44.932Z,99.90
2023-06-18T18:34:13.811Z,99.90
2023-06-18T18:36:42.872Z,99.90
2023-06-18T18:39:11.861Z,99.90
2023-06-18T18:41:42.426Z,99.90
2023-06-18T18:44:11.485Z,99.90
2023-06-18T18:46:40.423Z,99.90
2023-06-18T18:49:10.806Z,99.90
2023-06-18T18:51:39.563Z,99.90
2023-06-18T18:54:08.800Z,99.90
2023-06-18T18:56:37.654Z,99.90
2023-06-18T18:59:06.714Z,99.90
2023-06-18T19:01:35.615Z,99.90
2023-06-18T19:04:04.479Z,99.90
2023-06-18T19:06:34.769Z,99.90
2023-06-18T19:09:03.704Z,99.90
2023-06-18T19:11:32.688Z,99.90
2023-06-18T19:14:01.728Z,99.90
2023-06-18T19:16:30.884Z,99.90
2023-06-18T19:18:59.854Z,99.90
2023-06-18T19:21:28.857Z,99.90
2023-06-18T19:23:59.187Z,99.90
2023-06-18T19:26:28.281Z,99.90
2023-06-18T19:28:57.282Z,99.90
2023-06-18T19:31:26.242Z,99.90
2023-06-18T19:33:55.114Z,99.90
2023-06-18T19:36:24.092Z,99.90
2023-06-18T19:38:53.835Z,99.90
2023-06-18T19:41:24.309Z,99.90
2023-06-18T19:43:53.170Z,99.90
2023-06-18T19:46:22.184Z,99.90
2023-06-18T19:48:51.150Z,99.90
2023-06-18T19:51:20.008Z,99.90
2023-06-18T19:53:48.966Z,99.90
2023-06-18T19:56:19.272Z,99.90
2023-06-18T19:58:49.610Z,99.90
2023-06-18T20:01:18.613Z,99.90
2023-06-18T20:03:47.471Z,99.90
2023-06-18T20:06:16.568Z,99.90
2023-06-18T20:08:45.423Z,99.90
2023-06-18T20:11:14.809Z,99.90
2023-06-18T20:13:43.910Z,99.90
2023-06-18T20:16:14.315Z,99.90
2023-06-18T20:18:43.256Z,99.90
2023-06-18T20:21:13.206Z,99.90
2023-06-18T20:23:42.248Z,99.90
2023-06-18T20:26:11.241Z,99.90
2023-06-18T20:28:40.295Z,99.90
2023-06-18T20:31:09.289Z,99.90
2023-06-18T20:33:41.068Z,99.90
2023-06-18T20:36:10.148Z,99.90
2023-06-18T20:38:39.087Z,99.90
2023-06-18T20:41:08.827Z,99.90
2023-06-18T20:43:37.823Z,99.90
2023-06-18T20:46:06.869Z,99.90
2023-06-18T20:48:36.593Z,99.90
2023-06-18T20:51:08.348Z,99.90
2023-06-18T20:53:37.963Z,99.90
2023-06-18T20:56:07.560Z,99.90
2023-06-18T20:58:36.514Z,99.90
2023-06-18T21:01:05.913Z,99.90
2023-06-18T21:03:37.706Z,99.90
2023-06-18T21:06:08.058Z,99.90
2023-06-18T21:08:37.113Z,99.90
2023-06-18T21:11:05.942Z,99.90
2023-06-18T21:13:34.857Z,99.90
2023-06-18T21:16:03.772Z,99.90
2023-06-18T21:18:32.802Z,99.90
2023-06-18T21:21:01.722Z,99.90
2023-06-18T21:23:33.508Z,99.90
2023-06-18T21:26:02.435Z,99.90
2023-06-18T21:28:31.683Z,99.90
2023-06-18T21:31:00.900Z,99.90
2023-06-18T21:33:29.834Z,99.90
2023-06-18T21:35:58.844Z,99.90
2023-06-18T21:38:27.959Z,99.90
2023-06-18T21:40:58.355Z,99.90
2023-06-18T21:43:27.221Z,99.90
2023-06-18T21:45:59.761Z,99.90
2023-06-18T21:48:29.452Z,99.90
2023-06-18T21:51:02.066Z,99.90
2023-06-18T21:53:31.186Z,99.90
2023-06-18T21:56:04.972Z,99.90
2023-06-18T21:58:34.024Z,99.90
2023-06-18T22:01:04.403Z,99.90
2023-06-18T22:03:33.339Z,99.90
2023-06-18T22:06:02.374Z,99.90
2023-06-18T22:08:41.249Z,99.90
2023-06-18T22:11:11.563Z,99.90
2023-06-18T22:13:41.238Z,99.90
2023-06-18T22:16:10.414Z,99.90
2023-06-18T22:18:39.613Z,99.90
2023-06-18T22:21:08.521Z,99.90
2023-06-18T22:23:38.225Z,99.90
2023-06-18T22:26:07.592Z,99.90
2023-06-18T22:28:37.975Z,99.90
2023-06-18T22:31:06.890Z,99.90
2023-06-18T22:33:35.916Z,99.90
2023-06-18T22:36:05.019Z,99.90
2023-06-18T22:38:33.927Z,99.90
2023-06-18T22:41:02.813Z,99.90
2023-06-18T22:43:31.850Z,99.90
2023-06-18T22:46:05.836Z,99.90
2023-06-18T22:48:34.875Z,99.90
2023-06-18T22:51:03.687Z,99.90
2023-06-18T22:53:32.614Z,99.90
2023-06-18T22:56:01.515Z,99.90
2023-06-18T22:58:30.389Z,99.90
2023-06-18T23:00:59.440Z,99.90
2023-06-18T23:03:29.730Z,99.90
2023-06-18T23:05:58.727Z,99.90
2023-06-18T23:08:27.509Z,99.90
2023-06-18T23:10:56.461Z,99.90
2023-06-18T23:13:25.350Z,99.90
2023-06-18T23:15:55.487Z,99.90
2023-06-18T23:18:27.449Z,99.90
2023-06-18T23:20:57.861Z,99.90
2023-06-18T23:23:29.813Z,99.90
2023-06-18T23:25:58.796Z,99.90
2023-06-18T23:28:28.120Z,99.90
2023-06-18T23:30:56.967Z,99.90
2023-06-18T23:33:25.821Z,99.90
2023-06-18T23:35:54.625Z,99.90
2023-06-18T23:38:25.137Z,99.90
2023-06-18T23:40:54.068Z,99.90
2023-06-18T23:43:22.988Z,99.90
2023-06-18T23:45:51.796Z,99.90
2023-06-18T23:48:20.822Z,99.90
2023-06-18T23:50:50.374Z,99.90
2023-06-18T23:53:19.383Z,99.90
2023-06-18T23:55:49.502Z,99.90
2023-06-18T23:58:18.513Z,99.90
